sensor_id;sensor_type;location;lat;lon;timestamp;pressure;altitude;pressure_sealevel;temperature;humidity
6218;BME280;3142;48.206;11.550;2023-03-03T00:00:25;95823.63;;;4.93;66.64
6218;BME280;3142;48.206;11.550;2023-03-03T00:02:51;95817.50;;;4.94;67.24
6218;BME280;3142;48.206;11.550;2023-03-03T00:05:17;95817.66;;;4.92;66.59
6218;BME280;3142;48.206;11.550;2023-03-03T00:07:44;95827.69;;;4.87;67.29
6218;BME280;3142;48.206;11.550;2023-03-03T00:10:12;95822.50;;;4.87;67.63
6218;BME280;3142;48.206;11.550;2023-03-03T00:12:45;95827.38;;;4.90;67.19
6218;BME280;3142;48.206;11.550;2023-03-03T00:15:14;95817.00;;;4.90;67.39
6218;BME280;3142;48.206;11.550;2023-03-03T00:17:42;95817.66;;;4.92;66.78
6218;BME280;3142;48.206;11.550;2023-03-03T00:20:26;95820.91;;;4.94;66.95
6218;BME280;3142;48.206;11.550;2023-03-03T00:22:54;95822.03;;;4.92;66.68
6218;BME280;3142;48.206;11.550;2023-03-03T00:25:27;95817.16;;;4.89;67.25
6218;BME280;3142;48.206;11.550;2023-03-03T00:27:54;95816.22;;;4.82;67.03
6218;BME280;3142;48.206;11.550;2023-03-03T00:30:23;95819.09;;;4.79;67.54
6218;BME280;3142;48.206;11.550;2023-03-03T00:32:52;95815.06;;;4.84;67.27
6218;BME280;3142;48.206;11.550;2023-03-03T00:35:23;95813.44;;;4.83;67.47
6218;BME280;3142;48.206;11.550;2023-03-03T00:37:53;95808.91;;;4.85;67.27
6218;BME280;3142;48.206;11.550;2023-03-03T00:40:22;95815.56;;;4.88;67.04
6218;BME280;3142;48.206;11.550;2023-03-03T00:42:51;95814.44;;;4.82;67.54
6218;BME280;3142;48.206;11.550;2023-03-03T00:45:30;95824.47;;;4.85;67.66
6218;BME280;3142;48.206;11.550;2023-03-03T00:48:06;95828.81;;;4.93;66.88
6218;BME280;3142;48.206;11.550;2023-03-03T00:50:38;95825.59;;;4.91;66.86
6218;BME280;3142;48.206;11.550;2023-03-03T00:53:06;95828.34;;;4.89;66.72
6218;BME280;3142;48.206;11.550;2023-03-03T00:55:36;95825.75;;;4.89;66.97
6218;BME280;3142;48.206;11.550;2023-03-03T00:58:03;95826.09;;;4.86;66.59
6218;BME280;3142;48.206;11.550;2023-03-03T01:00:29;95826.88;;;4.87;66.85
6218;BME280;3142;48.206;11.550;2023-03-03T01:02:59;95820.09;;;4.86;67.18
6218;BME280;3142;48.206;11.550;2023-03-03T01:05:27;95822.19;;;4.74;67.46
6218;BME280;3142;48.206;11.550;2023-03-03T01:07:53;95825.91;;;4.71;67.23
6218;BME280;3142;48.206;11.550;2023-03-03T01:10:20;95826.41;;;4.67;66.99
6218;BME280;3142;48.206;11.550;2023-03-03T01:12:46;95820.09;;;4.69;67.64
6218;BME280;3142;48.206;11.550;2023-03-03T01:15:14;95820.25;;;4.68;67.17
6218;BME280;3142;48.206;11.550;2023-03-03T01:17:41;95824.75;;;4.66;67.74
6218;BME280;3142;48.206;11.550;2023-03-03T01:20:11;95822.66;;;4.61;67.27
6218;BME280;3142;48.206;11.550;2023-03-03T01:22:38;95828.31;;;4.57;67.24
6218;BME280;3142;48.206;11.550;2023-03-03T01:25:04;95829.09;;;4.49;67.76
6218;BME280;3142;48.206;11.550;2023-03-03T01:27:31;95815.81;;;4.52;68.14
6218;BME280;3142;48.206;11.550;2023-03-03T01:29:57;95818.25;;;4.45;68.33
6218;BME280;3142;48.206;11.550;2023-03-03T01:32:24;95815.81;;;4.44;68.25
6218;BME280;3142;48.206;11.550;2023-03-03T01:34:51;95814.84;;;4.45;68.36
6218;BME280;3142;48.206;11.550;2023-03-03T01:37:19;95816.31;;;4.39;68.31
6218;BME280;3142;48.206;11.550;2023-03-03T01:39:48;95819.72;;;4.40;68.91
6218;BME280;3142;48.206;11.550;2023-03-03T01:42:14;95816.59;;;4.36;68.61
6218;BME280;3142;48.206;11.550;2023-03-03T01:44:41;95809.97;;;4.34;69.08
6218;BME280;3142;48.206;11.550;2023-03-03T01:47:10;95814.00;;;4.28;68.84
6218;BME280;3142;48.206;11.550;2023-03-03T01:49:41;95813.31;;;4.18;69.70
6218;BME280;3142;48.206;11.550;2023-03-03T01:52:12;95814.78;;;4.21;69.37
6218;BME280;3142;48.206;11.550;2023-03-03T01:54:44;95809.13;;;4.17;69.26
6218;BME280;3142;48.206;11.550;2023-03-03T01:57:15;95802.50;;;4.23;69.58
6218;BME280;3142;48.206;11.550;2023-03-03T01:59:47;95805.41;;;4.20;69.68
6218;BME280;3142;48.206;11.550;2023-03-03T02:02:15;95801.03;;;4.20;70.06
6218;BME280;3142;48.206;11.550;2023-03-03T02:04:42;95799.25;;;4.21;70.09
6218;BME280;3142;48.206;11.550;2023-03-03T02:07:09;95806.19;;;4.12;70.55
6218;BME280;3142;48.206;11.550;2023-03-03T02:09:45;95801.84;;;4.12;70.63
6218;BME280;3142;48.206;11.550;2023-03-03T02:12:16;95802.16;;;4.18;69.88
6218;BME280;3142;48.206;11.550;2023-03-03T02:14:43;95803.78;;;4.19;70.72
6218;BME280;3142;48.206;11.550;2023-03-03T02:17:10;95804.91;;;4.24;70.50
6218;BME280;3142;48.206;11.550;2023-03-03T02:19:42;95803.00;;;4.26;70.57
6218;BME280;3142;48.206;11.550;2023-03-03T02:22:13;95814.50;;;4.32;70.63
6218;BME280;3142;48.206;11.550;2023-03-03T02:24:45;95813.53;;;4.33;70.07
6218;BME280;3142;48.206;11.550;2023-03-03T02:27:16;95816.41;;;4.22;70.26
6218;BME280;3142;48.206;11.550;2023-03-03T02:29:42;95811.59;;;4.27;70.11
6218;BME280;3142;48.206;11.550;2023-03-03T02:32:08;95812.41;;;4.35;69.79
6218;BME280;3142;48.206;11.550;2023-03-03T02:34:45;95803.00;;;4.34;69.66
6218;BME280;3142;48.206;11.550;2023-03-03T02:37:11;95800.25;;;4.36;70.06
6218;BME280;3142;48.206;11.550;2023-03-03T02:39:38;95799.28;;;4.37;69.66
6218;BME280;3142;48.206;11.550;2023-03-03T02:42:07;95800.56;;;4.33;69.55
6218;BME280;3142;48.206;11.550;2023-03-03T02:44:36;95797.34;;;4.31;70.13
6218;BME280;3142;48.206;11.550;2023-03-03T02:47:03;95802.34;;;4.32;70.19
6218;BME280;3142;48.206;11.550;2023-03-03T02:49:31;95798.31;;;4.30;70.15
6218;BME280;3142;48.206;11.550;2023-03-03T02:51:59;95798.63;;;4.27;70.06
6218;BME280;3142;48.206;11.550;2023-03-03T02:54:28;95801.50;;;4.24;70.29
6218;BME280;3142;48.206;11.550;2023-03-03T02:56:55;95801.50;;;4.24;70.33
6218;BME280;3142;48.206;11.550;2023-03-03T02:59:21;95794.22;;;4.19;70.44
6218;BME280;3142;48.206;11.550;2023-03-03T03:01:49;95798.13;;;4.23;70.53
6218;BME280;3142;48.206;11.550;2023-03-03T03:04:18;95795.25;;;4.26;70.24
6218;BME280;3142;48.206;11.550;2023-03-03T03:06:46;95804.09;;;4.24;70.59
6218;BME280;3142;48.206;11.550;2023-03-03T03:09:13;95798.28;;;4.22;71.04
6218;BME280;3142;48.206;11.550;2023-03-03T03:11:40;95799.13;;;4.30;70.60
6218;BME280;3142;48.206;11.550;2023-03-03T03:14:07;95802.34;;;4.32;70.74
6218;BME280;3142;48.206;11.550;2023-03-03T03:16:35;95807.72;;;4.39;71.21
6218;BME280;3142;48.206;11.550;2023-03-03T03:19:03;95805.28;;;4.37;70.48
6218;BME280;3142;48.206;11.550;2023-03-03T03:21:30;95806.59;;;4.41;70.67
6218;BME280;3142;48.206;11.550;2023-03-03T03:23:57;95807.91;;;4.45;70.82
6218;BME280;3142;48.206;11.550;2023-03-03T03:26:23;95809.50;;;4.46;70.44
6218;BME280;3142;48.206;11.550;2023-03-03T03:28:50;95806.44;;;4.43;70.72
6218;BME280;3142;48.206;11.550;2023-03-03T03:31:18;95806.09;;;4.46;70.36
6218;BME280;3142;48.206;11.550;2023-03-03T03:33:45;95807.41;;;4.50;70.65
6218;BME280;3142;48.206;11.550;2023-03-03T03:36:13;95805.94;;;4.47;70.20
6218;BME280;3142;48.206;11.550;2023-03-03T03:38:39;95802.22;;;4.50;70.65
6218;BME280;3142;48.206;11.550;2023-03-03T03:41:06;95808.69;;;4.46;69.86
6218;BME280;3142;48.206;11.550;2023-03-03T03:43:33;95804.00;;;4.41;70.71
6218;BME280;3142;48.206;11.550;2023-03-03T03:45:59;95805.63;;;4.42;70.89
6218;BME280;3142;48.206;11.550;2023-03-03T03:48:26;95803.03;;;4.42;70.46
6218;BME280;3142;48.206;11.550;2023-03-03T03:50:52;95803.34;;;4.47;70.57
6218;BME280;3142;48.206;11.550;2023-03-03T03:53:20;95800.78;;;4.47;71.01
6218;BME280;3142;48.206;11.550;2023-03-03T03:55:46;95806.91;;;4.46;70.85
6218;BME280;3142;48.206;11.550;2023-03-03T03:58:14;95807.75;;;4.55;70.12
6218;BME280;3142;48.206;11.550;2023-03-03T04:00:42;95813.91;;;4.54;70.47
6218;BME280;3142;48.206;11.550;2023-03-03T04:03:10;95814.19;;;4.51;70.85
6218;BME280;3142;48.206;11.550;2023-03-03T04:05:38;95809.38;;;4.56;70.57
6218;BME280;3142;48.206;11.550;2023-03-03T04:08:05;95811.63;;;4.51;70.40
6218;BME280;3142;48.206;11.550;2023-03-03T04:10:33;95808.38;;;4.49;70.66
6218;BME280;3142;48.206;11.550;2023-03-03T04:13:00;95810.63;;;4.52;70.66
6218;BME280;3142;48.206;11.550;2023-03-03T04:15:26;95805.78;;;4.49;71.10
6218;BME280;3142;48.206;11.550;2023-03-03T04:17:53;95813.75;;;4.56;70.44
6218;BME280;3142;48.206;11.550;2023-03-03T04:20:19;95813.59;;;4.57;70.20
6218;BME280;3142;48.206;11.550;2023-03-03T04:22:46;95808.56;;;4.64;70.13
6218;BME280;3142;48.206;11.550;2023-03-03T04:25:14;95814.09;;;4.69;70.29
6218;BME280;3142;48.206;11.550;2023-03-03T04:27:43;95813.75;;;4.64;70.32
6218;BME280;3142;48.206;11.550;2023-03-03T04:30:10;95806.94;;;4.63;69.87
6218;BME280;3142;48.206;11.550;2023-03-03T04:32:37;95813.56;;;4.65;70.17
6218;BME280;3142;48.206;11.550;2023-03-03T04:35:04;95810.19;;;4.57;70.38
6218;BME280;3142;48.206;11.550;2023-03-03T04:37:30;95808.72;;;4.54;70.36
6218;BME280;3142;48.206;11.550;2023-03-03T04:39:57;95811.97;;;4.56;70.40
6218;BME280;3142;48.206;11.550;2023-03-03T04:42:24;95807.75;;;4.55;70.27
6218;BME280;3142;48.206;11.550;2023-03-03T04:44:53;95813.91;;;4.54;70.73
6218;BME280;3142;48.206;11.550;2023-03-03T04:47:20;95808.72;;;4.54;71.32
6218;BME280;3142;48.206;11.550;2023-03-03T04:49:46;95806.94;;;4.55;71.22
6218;BME280;3142;48.206;11.550;2023-03-03T04:52:13;95807.75;;;4.55;70.79
6218;BME280;3142;48.206;11.550;2023-03-03T04:54:39;95799.34;;;4.53;71.15
6218;BME280;3142;48.206;11.550;2023-03-03T04:57:05;95809.53;;;4.55;71.33
6218;BME280;3142;48.206;11.550;2023-03-03T04:59:33;95807.91;;;4.54;71.34
6218;BME280;3142;48.206;11.550;2023-03-03T05:02:01;95814.06;;;4.53;71.19
6218;BME280;3142;48.206;11.550;2023-03-03T05:04:28;95804.53;;;4.53;71.49
6218;BME280;3142;48.206;11.550;2023-03-03T05:06:55;95807.91;;;4.54;70.89
6218;BME280;3142;48.206;11.550;2023-03-03T05:09:22;95811.78;;;4.41;71.89
6218;BME280;3142;48.206;11.550;2023-03-03T05:11:48;95807.56;;;4.49;71.72
6218;BME280;3142;48.206;11.550;2023-03-03T05:14:15;95807.41;;;4.50;71.35
6218;BME280;3142;48.206;11.550;2023-03-03T05:16:41;95811.78;;;4.50;71.45
6218;BME280;3142;48.206;11.550;2023-03-03T05:19:09;95818.25;;;4.45;71.65
6218;BME280;3142;48.206;11.550;2023-03-03T05:21:35;95814.38;;;4.50;72.02
6218;BME280;3142;48.206;11.550;2023-03-03T05:24:06;95813.91;;;4.54;72.24
6218;BME280;3142;48.206;11.550;2023-03-03T05:26:33;95817.47;;;4.53;71.61
6218;BME280;3142;48.206;11.550;2023-03-03T05:28:59;95817.47;;;4.53;71.71
6218;BME280;3142;48.206;11.550;2023-03-03T05:31:26;95821.00;;;4.52;71.29
6218;BME280;3142;48.206;11.550;2023-03-03T05:33:52;95820.06;;;4.53;71.51
6218;BME280;3142;48.206;11.550;2023-03-03T05:36:20;95821.69;;;4.54;71.77
6218;BME280;3142;48.206;11.550;2023-03-03T05:38:46;95822.16;;;4.58;71.55
6218;BME280;3142;48.206;11.550;2023-03-03T05:41:13;95829.78;;;4.59;72.00
6218;BME280;3142;48.206;11.550;2023-03-03T05:43:39;95830.09;;;4.56;71.42
6218;BME280;3142;48.206;11.550;2023-03-03T05:46:05;95826.34;;;4.51;71.50
6218;BME280;3142;48.206;11.550;2023-03-03T05:48:32;95826.66;;;4.47;72.15
6218;BME280;3142;48.206;11.550;2023-03-03T05:50:59;95826.19;;;4.52;72.13
6218;BME280;3142;48.206;11.550;2023-03-03T05:53:27;95834.28;;;4.49;71.84
6218;BME280;3142;48.206;11.550;2023-03-03T05:55:53;95839.00;;;4.54;71.94
6218;BME280;3142;48.206;11.550;2023-03-03T05:58:20;95837.22;;;4.54;72.18
6218;BME280;3142;48.206;11.550;2023-03-03T06:00:47;95843.03;;;4.48;72.17
6218;BME280;3142;48.206;11.550;2023-03-03T06:03:13;95841.72;;;4.52;72.69
6218;BME280;3142;48.206;11.550;2023-03-03T06:05:41;95837.53;;;4.59;71.93
6218;BME280;3142;48.206;11.550;2023-03-03T06:08:07;95853.09;;;4.59;72.12
6218;BME280;3142;48.206;11.550;2023-03-03T06:10:35;95859.41;;;4.65;72.14
6218;BME280;3142;48.206;11.550;2023-03-03T06:13:02;95857.50;;;4.67;71.84
6218;BME280;3142;48.206;11.550;2023-03-03T06:15:28;95861.03;;;4.66;71.75
6218;BME280;3142;48.206;11.550;2023-03-03T06:17:55;95856.69;;;4.66;71.81
6218;BME280;3142;48.206;11.550;2023-03-03T06:20:21;95867.84;;;4.67;71.93
6218;BME280;3142;48.206;11.550;2023-03-03T06:22:47;95866.69;;;4.61;71.69
6218;BME280;3142;48.206;11.550;2023-03-03T06:25:14;95869.94;;;4.63;71.93
6218;BME280;3142;48.206;11.550;2023-03-03T06:27:42;95873.69;;;4.69;71.51
6218;BME280;3142;48.206;11.550;2023-03-03T06:30:09;95864.13;;;4.69;71.85
6218;BME280;3142;48.206;11.550;2023-03-03T06:32:37;95868.66;;;4.67;71.42
6218;BME280;3142;48.206;11.550;2023-03-03T06:35:04;95870.28;;;4.68;71.66
6218;BME280;3142;48.206;11.550;2023-03-03T06:37:30;95872.06;;;4.68;71.65
6218;BME280;3142;48.206;11.550;2023-03-03T06:39:57;95868.50;;;4.69;71.53
6218;BME280;3142;48.206;11.550;2023-03-03T06:42:23;95880.94;;;4.65;71.59
6218;BME280;3142;48.206;11.550;2023-03-03T06:44:51;95879.31;;;4.64;72.48
6218;BME280;3142;48.206;11.550;2023-03-03T06:47:17;95875.13;;;4.63;71.82
6218;BME280;3142;48.206;11.550;2023-03-03T06:49:44;95880.13;;;4.65;72.31
6218;BME280;3142;48.206;11.550;2023-03-03T06:52:12;95871.91;;;4.69;71.99
6218;BME280;3142;48.206;11.550;2023-03-03T06:54:39;95882.25;;;4.61;72.22
6218;BME280;3142;48.206;11.550;2023-03-03T06:57:15;95882.88;;;4.63;72.23
6218;BME280;3142;48.206;11.550;2023-03-03T06:59:41;95879.16;;;4.66;71.91
6218;BME280;3142;48.206;11.550;2023-03-03T07:02:13;95880.00;;;4.66;71.95
6218;BME280;3142;48.206;11.550;2023-03-03T07:04:42;95886.81;;;4.67;72.20
6218;BME280;3142;48.206;11.550;2023-03-03T07:07:15;95891.34;;;4.73;72.52
6218;BME280;3142;48.206;11.550;2023-03-03T07:09:43;95889.06;;;4.70;71.85
6218;BME280;3142;48.206;11.550;2023-03-03T07:12:12;95898.78;;;4.68;72.08
6218;BME280;3142;48.206;11.550;2023-03-03T07:14:41;95890.03;;;4.78;72.03
6218;BME280;3142;48.206;11.550;2023-03-03T07:17:15;95900.94;;;4.81;71.57
6218;BME280;3142;48.206;11.550;2023-03-03T07:19:42;95899.31;;;4.80;71.36
6218;BME280;3142;48.206;11.550;2023-03-03T07:22:15;95898.16;;;4.83;71.53
6218;BME280;3142;48.206;11.550;2023-03-03T07:24:43;95897.34;;;4.82;71.65
6218;BME280;3142;48.206;11.550;2023-03-03T07:27:13;95907.72;;;4.82;71.54
6218;BME280;3142;48.206;11.550;2023-03-03T07:29:42;95907.56;;;4.84;72.03
6218;BME280;3142;48.206;11.550;2023-03-03T07:32:23;95901.72;;;4.90;71.75
6218;BME280;3142;48.206;11.550;2023-03-03T07:34:51;95903.06;;;4.94;71.11
6218;BME280;3142;48.206;11.550;2023-03-03T07:37:25;95909.53;;;4.98;71.58
6218;BME280;3142;48.206;11.550;2023-03-03T07:39:53;95916.03;;;4.94;71.60
6218;BME280;3142;48.206;11.550;2023-03-03T07:42:21;95922.50;;;4.98;71.29
6218;BME280;3142;48.206;11.550;2023-03-03T07:44:49;95917.78;;;5.01;71.73
6218;BME280;3142;48.206;11.550;2023-03-03T07:47:23;95930.28;;;5.06;71.35
6218;BME280;3142;48.206;11.550;2023-03-03T07:49:51;95923.47;;;5.05;71.27
6218;BME280;3142;48.206;11.550;2023-03-03T07:52:27;95930.59;;;5.03;70.93
6218;BME280;3142;48.206;11.550;2023-03-03T07:54:56;95928.66;;;5.05;71.04
6218;BME280;3142;48.206;11.550;2023-03-03T07:57:24;95925.41;;;5.03;71.22
6218;BME280;3142;48.206;11.550;2023-03-03T07:59:54;95928.97;;;5.02;71.89
6218;BME280;3142;48.206;11.550;2023-03-03T08:02:36;95918.31;;;5.13;71.38
6218;BME280;3142;48.206;11.550;2023-03-03T08:05:21;95932.56;;;5.09;71.18
6218;BME280;3142;48.206;11.550;2023-03-03T08:07:52;95926.56;;;5.17;70.92
6218;BME280;3142;48.206;11.550;2023-03-03T08:10:30;95922.53;;;5.22;70.35
6218;BME280;3142;48.206;11.550;2023-03-03T08:13:04;95923.19;;;5.24;70.76
6218;BME280;3142;48.206;11.550;2023-03-03T08:15:36;95925.13;;;5.30;69.91
6218;BME280;3142;48.206;11.550;2023-03-03T08:18:17;95916.72;;;5.37;69.76
6218;BME280;3142;48.206;11.550;2023-03-03T08:20:46;95929.81;;;5.27;70.97
6218;BME280;3142;48.206;11.550;2023-03-03T08:23:14;95930.16;;;5.40;70.39
6218;BME280;3142;48.206;11.550;2023-03-03T08:25:41;95936.63;;;5.44;70.44
6218;BME280;3142;48.206;11.550;2023-03-03T08:28:08;95935.84;;;5.52;69.68
6218;BME280;3142;48.206;11.550;2023-03-03T08:30:34;95936.00;;;5.67;69.86
6218;BME280;3142;48.206;11.550;2023-03-03T08:33:01;95937.28;;;5.71;69.65
6218;BME280;3142;48.206;11.550;2023-03-03T08:35:29;95939.88;;;5.71;69.60
6218;BME280;3142;48.206;11.550;2023-03-03T08:37:55;95938.22;;;5.86;69.39
6218;BME280;3142;48.206;11.550;2023-03-03T08:40:22;95938.25;;;5.94;68.79
6218;BME280;3142;48.206;11.550;2023-03-03T08:42:48;95937.59;;;6.00;68.91
6218;BME280;3142;48.206;11.550;2023-03-03T08:45:15;95935.97;;;5.99;68.60
6218;BME280;3142;48.206;11.550;2023-03-03T08:47:41;95937.59;;;6.08;68.34
6218;BME280;3142;48.206;11.550;2023-03-03T08:50:09;95947.97;;;6.00;68.57
6218;BME280;3142;48.206;11.550;2023-03-03T08:52:37;95948.78;;;6.01;68.35
6218;BME280;3142;48.206;11.550;2023-03-03T08:55:04;95947.81;;;6.02;68.33
6218;BME280;3142;48.206;11.550;2023-03-03T08:57:31;95949.44;;;6.03;68.80
6218;BME280;3142;48.206;11.550;2023-03-03T08:59:58;95958.19;;;6.02;68.60
6218;BME280;3142;48.206;11.550;2023-03-03T09:02:24;95953.69;;;6.04;68.51
6218;BME280;3142;48.206;11.550;2023-03-03T09:04:51;95951.84;;;6.12;67.69
6218;BME280;3142;48.206;11.550;2023-03-03T09:07:18;95945.53;;;6.07;67.33
6218;BME280;3142;48.206;11.550;2023-03-03T09:09:46;95954.31;;;5.98;68.21
6218;BME280;3142;48.206;11.550;2023-03-03T09:12:16;95958.03;;;6.11;67.88
6218;BME280;3142;48.206;11.550;2023-03-03T09:14:43;95957.03;;;6.20;67.90
6218;BME280;3142;48.206;11.550;2023-03-03T09:17:24;95956.06;;;6.21;68.07
6218;BME280;3142;48.206;11.550;2023-03-03T09:19:51;95964.16;;;6.35;67.43
6218;BME280;3142;48.206;11.550;2023-03-03T09:22:22;95955.72;;;6.33;68.05
6218;BME280;3142;48.206;11.550;2023-03-03T09:24:53;95964.59;;;6.46;67.66
6218;BME280;3142;48.206;11.550;2023-03-03T09:27:26;95963.56;;;6.56;66.25
6218;BME280;3142;48.206;11.550;2023-03-03T09:29:53;95969.81;;;6.46;68.04
6218;BME280;3142;48.206;11.550;2023-03-03T09:32:26;95969.28;;;6.59;67.69
6218;BME280;3142;48.206;11.550;2023-03-03T09:34:55;95966.63;;;6.67;66.22
6218;BME280;3142;48.206;11.550;2023-03-03T09:37:23;95969.69;;;6.71;66.09
6218;BME280;3142;48.206;11.550;2023-03-03T09:39:54;95966.59;;;6.75;66.20
6218;BME280;3142;48.206;11.550;2023-03-03T09:42:47;95969.81;;;6.86;66.30
6218;BME280;3142;48.206;11.550;2023-03-03T09:45:37;95970.13;;;6.82;66.34
6218;BME280;3142;48.206;11.550;2023-03-03T09:51:30;95981.16;;;6.84;66.09
6218;BME280;3142;48.206;11.550;2023-03-03T09:54:08;95981.31;;;6.91;65.62
6218;BME280;3142;48.206;11.550;2023-03-03T09:56:42;95981.03;;;6.86;65.77
6218;BME280;3142;48.206;11.550;2023-03-03T09:59:20;95987.66;;;6.89;66.21
6218;BME280;3142;48.206;11.550;2023-03-03T10:01:59;95985.06;;;6.89;65.85
6218;BME280;3142;48.206;11.550;2023-03-03T10:04:53;95986.81;;;6.96;65.97
6218;BME280;3142;48.206;11.550;2023-03-03T10:07:31;95989.94;;;6.92;65.68
6218;BME280;3142;48.206;11.550;2023-03-03T10:10:19;95985.25;;;6.87;65.57
6218;BME280;3142;48.206;11.550;2023-03-03T10:13:00;95994.75;;;6.72;66.37
6218;BME280;3142;48.206;11.550;2023-03-03T10:15:38;95998.44;;;6.77;66.66
6218;BME280;3142;48.206;11.550;2023-03-03T10:18:20;95996.78;;;6.84;66.34
6218;BME280;3142;48.206;11.550;2023-03-03T10:20:57;96000.50;;;6.90;66.08
6218;BME280;3142;48.206;11.550;2023-03-03T10:23:41;96003.75;;;6.92;65.51
6218;BME280;3142;48.206;11.550;2023-03-03T10:26:17;95995.41;;;6.97;65.54
6218;BME280;3142;48.206;11.550;2023-03-03T10:29:08;95993.09;;;7.10;65.62
6218;BME280;3142;48.206;11.550;2023-03-03T10:31:52;95996.75;;;7.24;65.04
6218;BME280;3142;48.206;11.550;2023-03-03T10:34:51;95995.94;;;7.23;64.70
6218;BME280;3142;48.206;11.550;2023-03-03T10:37:23;95995.03;;;7.39;65.08
6218;BME280;3142;48.206;11.550;2023-03-03T10:40:02;95996.88;;;7.53;64.83
6218;BME280;3142;48.206;11.550;2023-03-03T10:43:02;95989.66;;;7.63;64.26
6218;BME280;3142;48.206;11.550;2023-03-03T10:45:48;95983.78;;;7.69;63.54
6218;BME280;3142;48.206;11.550;2023-03-03T10:48:28;95989.47;;;7.65;64.33
6218;BME280;3142;48.206;11.550;2023-03-03T10:51:06;95998.81;;;7.59;63.67
6218;BME280;3142;48.206;11.550;2023-03-03T10:53:41;95996.56;;;7.56;63.56
6218;BME280;3142;48.206;11.550;2023-03-03T10:56:24;95997.94;;;7.67;63.76
6218;BME280;3142;48.206;11.550;2023-03-03T10:59:03;96004.47;;;7.63;63.66
6218;BME280;3142;48.206;11.550;2023-03-03T11:01:46;96004.22;;;7.50;64.72
6218;BME280;3142;48.206;11.550;2023-03-03T11:07:18;96007.88;;;7.63;63.62
6218;BME280;3142;48.206;11.550;2023-03-03T11:09:58;96012.69;;;7.52;64.18
6218;BME280;3142;48.206;11.550;2023-03-03T11:12:34;95998.34;;;7.56;63.04
6218;BME280;3142;48.206;11.550;2023-03-03T11:15:24;96009.09;;;7.53;64.30
6218;BME280;3142;48.206;11.550;2023-03-03T11:18:07;96007.00;;;7.48;64.17
6218;BME280;3142;48.206;11.550;2023-03-03T11:20:39;96007.00;;;7.48;64.55
6218;BME280;3142;48.206;11.550;2023-03-03T11:23:28;96011.56;;;7.54;65.04
6218;BME280;3142;48.206;11.550;2023-03-03T11:26:07;96011.03;;;7.59;63.82
6218;BME280;3142;48.206;11.550;2023-03-03T11:28:51;96003.66;;;7.62;64.35
6218;BME280;3142;48.206;11.550;2023-03-03T11:31:27;96001.06;;;7.62;63.90
6218;BME280;3142;48.206;11.550;2023-03-03T11:34:08;96001.94;;;7.55;63.97
6218;BME280;3142;48.206;11.550;2023-03-03T11:36:42;96001.41;;;7.59;63.65
6218;BME280;3142;48.206;11.550;2023-03-03T11:39:13;95996.31;;;7.66;63.30
6218;BME280;3142;48.206;11.550;2023-03-03T11:41:51;95988.72;;;7.79;63.17
6218;BME280;3142;48.206;11.550;2023-03-03T11:44:24;95981.66;;;7.88;63.85
6218;BME280;3142;48.206;11.550;2023-03-03T11:46:57;95977.91;;;8.05;61.96
6218;BME280;3142;48.206;11.550;2023-03-03T11:49:30;95974.53;;;8.19;62.66
6218;BME280;3142;48.206;11.550;2023-03-03T11:52:04;95982.72;;;8.31;61.05
6218;BME280;3142;48.206;11.550;2023-03-03T11:54:41;95979.78;;;8.34;61.37
6218;BME280;3142;48.206;11.550;2023-03-03T11:57:18;95973.03;;;8.25;61.35
6218;BME280;3142;48.206;11.550;2023-03-03T11:59:57;95976.06;;;8.28;61.84
6218;BME280;3142;48.206;11.550;2023-03-03T12:05:37;95972.28;;;8.31;61.29
6218;BME280;3142;48.206;11.550;2023-03-03T12:08:13;95961.69;;;8.77;60.77
6218;BME280;3142;48.206;11.550;2023-03-03T12:10:51;95958.66;;;9.45;59.25
6218;BME280;3142;48.206;11.550;2023-03-03T12:13:28;95943.78;;;9.89;57.65
6218;BME280;3142;48.206;11.550;2023-03-03T12:16:03;95945.41;;;10.18;57.31
6218;BME280;3142;48.206;11.550;2023-03-03T12:18:46;95949.09;;;10.58;57.01
6218;BME280;3142;48.206;11.550;2023-03-03T12:21:30;95957.69;;;10.86;56.05
6218;BME280;3142;48.206;11.550;2023-03-03T12:24:21;95946.22;;;10.94;54.85
6218;BME280;3142;48.206;11.550;2023-03-03T12:26:56;95948.09;;;11.00;54.80
6218;BME280;3142;48.206;11.550;2023-03-03T12:29:26;95957.16;;;11.04;54.44
6218;BME280;3142;48.206;11.550;2023-03-03T12:32:05;95958.03;;;10.77;54.78
6218;BME280;3142;48.206;11.550;2023-03-03T12:34:40;95946.66;;;10.97;54.93
6218;BME280;3142;48.206;11.550;2023-03-03T12:37:32;95947.13;;;11.14;55.00
6218;BME280;3142;48.206;11.550;2023-03-03T12:40:07;95944.50;;;11.14;54.70
6218;BME280;3142;48.206;11.550;2023-03-03T12:42:46;95939.63;;;11.05;54.36
6218;BME280;3142;48.206;11.550;2023-03-03T12:45:32;95939.03;;;11.09;54.37
6218;BME280;3142;48.206;11.550;2023-03-03T12:48:07;95934.03;;;11.14;54.16
6218;BME280;3142;48.206;11.550;2023-03-03T12:50:41;95927.75;;;11.09;54.79
6218;BME280;3142;48.206;11.550;2023-03-03T12:53:24;95929.81;;;11.20;54.06
6218;BME280;3142;48.206;11.550;2023-03-03T12:55:56;95935.28;;;11.32;54.58
6218;BME280;3142;48.206;11.550;2023-03-03T12:58:36;95937.91;;;11.38;54.17
6218;BME280;3142;48.206;11.550;2023-03-03T13:01:15;95938.09;;;11.37;53.83
6218;BME280;3142;48.206;11.550;2023-03-03T13:03:52;95937.72;;;11.46;54.01
6218;BME280;3142;48.206;11.550;2023-03-03T13:06:26;95929.06;;;11.46;53.56
6218;BME280;3142;48.206;11.550;2023-03-03T13:09:16;95937.28;;;11.36;53.99
6218;BME280;3142;48.206;11.550;2023-03-03T13:11:58;95939.56;;;11.52;52.42
6218;BME280;3142;48.206;11.550;2023-03-03T13:14:34;95931.28;;;11.55;53.21
6218;BME280;3142;48.206;11.550;2023-03-03T13:17:14;95929.47;;;11.56;53.93
6218;BME280;3142;48.206;11.550;2023-03-03T13:19:45;95917.56;;;11.40;53.72
6218;BME280;3142;48.206;11.550;2023-03-03T13:22:23;95926.78;;;11.23;53.45
6218;BME280;3142;48.206;11.550;2023-03-03T13:24:59;95925.59;;;11.25;54.03
6218;BME280;3142;48.206;11.550;2023-03-03T13:27:31;95929.25;;;11.38;53.74
6218;BME280;3142;48.206;11.550;2023-03-03T13:30:07;95925.59;;;11.25;53.45
6218;BME280;3142;48.206;11.550;2023-03-03T13:32:43;95926.38;;;11.19;53.71
6218;BME280;3142;48.206;11.550;2023-03-03T13:35:18;95923.59;;;11.27;53.84
6218;BME280;3142;48.206;11.550;2023-03-03T13:37:52;95916.16;;;11.38;53.59
6218;BME280;3142;48.206;11.550;2023-03-03T13:40:23;95919.81;;;11.56;53.53
6218;BME280;3142;48.206;11.550;2023-03-03T13:42:55;95916.38;;;11.63;53.32
6218;BME280;3142;48.206;11.550;2023-03-03T13:45:29;95908.72;;;11.74;53.09
6218;BME280;3142;48.206;11.550;2023-03-03T13:48:01;95905.13;;;11.82;52.73
6218;BME280;3142;48.206;11.550;2023-03-03T13:50:37;95907.34;;;11.85;52.38